• Join FlightAware (Why Join?)
  • Login
  • US Flag 
Gobble Gobble! 
09:01PM EST


 

Airport Tracker/Info


-or-


 

Live Flight TrackerFlight Track Log ✈ N52944 ✈ 22-Jun-2013 ✈ KFFC - KLKR

Flight Track Log - Related Links

Times and Time Zones

All times are in EDT time to prevent confusion due to time zone crossing. See the N52944 flight status page for this flight to view local times or setup timezone preferences in your user account.

Time Position Orientation Groundspeed Altitude Reporting Facility
EDT Latitude Longitude Course Direction KTS MPH feet Rate Location/Type
05:30PM 33.3333 -84.5500 49° Northeast 101 116 2,500  Level Atlanta TRACON
05:31PM 33.3333 -84.5167 90° East 104 120 3,100 660 Climbing Atlanta TRACON
05:32PM 33.3500 -84.4833 59° Northeast 104 120 3,900 600 Climbing Atlanta TRACON
05:33PM 33.3500 -84.4500 90° East 106 122 4,400 480 Climbing Atlanta TRACON
05:34PM 33.3500 -84.4167 90° East 110 127 4,900 300 Climbing Atlanta TRACON
05:35PM 33.3500 -84.3833 90° East 121 139 5,000  Climbing Atlanta TRACON
05:36PM 33.5104 -84.3255 49° Northeast  Level FlightAware Approximate
05:36PM 33.3500 -84.3333 90° East 131 151 5,000  Level Atlanta TRACON
05:37PM 33.3500 -84.2833 90° East 130 150 5,000  Level Atlanta TRACON
05:38PM 33.3500 -84.2333 90° East 136 157 5,000 120 Level Atlanta TRACON
05:39PM 33.3500 -84.2000 90° East 118 136 5,300 360 Climbing Atlanta TRACON
05:40PM 33.3667 -84.1667 59° Northeast 117 135 5,800 300 Climbing Atlanta TRACON
05:42PM 33.3876 -84.1179 63° Northeast  Level Estimated
05:44PM 33.4500 -84.0333 63° Northeast 137 158 7,000  Level Atlanta TRACON
05:45PM 33.4667 -84.0000 59° Northeast 135 155 7,000  Level Atlanta TRACON
05:46PM 33.5000 -83.9667 40° Northeast 135 155 7,000  Level Atlanta TRACON
05:47PM 33.5167 -83.9333 59° Northeast 130 150 7,000  Level Atlanta TRACON
05:48PM 33.5500 -83.9000 40° Northeast 130 150 7,000  Level Atlanta TRACON
05:49PM 33.5245 -83.7974 63° Northeast  Level Estimated
05:49PM 33.5667 -83.8667 59° Northeast 132 152 7,000  Level Atlanta TRACON
05:50PM 33.5440 -83.7515 63° Northeast  Level Estimated
05:50PM 33.5833 -83.8333 59° Northeast 134 154 7,000  Level Atlanta TRACON
05:51PM 33.6167 -83.8000 40° Northeast 133 153 7,000  Level Atlanta TRACON
05:52PM 33.6333 -83.7667 59° Northeast 130 150 7,000  Level Atlanta TRACON
05:53PM 33.6500 -83.7333 59° Northeast 136 157 7,000  Level Atlanta TRACON
05:54PM 33.6667 -83.7000 59° Northeast 131 151 7,000  Level Atlanta TRACON
05:55PM 33.6833 -83.6500 68° East 132 152 7,000  Level Atlanta TRACON
05:56PM 33.7000 -83.6167 59° Northeast 132 152 7,000  Level Atlanta TRACON
05:57PM 33.7167 -83.5833 59° Northeast 127 146 7,000  Level Atlanta TRACON
05:58PM 33.7333 -83.5333 68° East 126 145 7,000  Level Atlanta TRACON
05:59PM 33.7500 -83.5000 59° Northeast 126 145 7,000  Level Atlanta TRACON
06:00PM 33.7500 -83.4667 90° East 123 142 7,000  Level Atlanta TRACON
06:01PM 33.7667 -83.4333 59° Northeast 123 142 7,000  Level Atlanta TRACON
06:02PM 33.7833 -83.4000 59° Northeast 125 144 7,000  Level Atlanta TRACON
06:03PM 33.8000 -83.3500 68° East 127 146 7,000  Level Atlanta TRACON
06:04PM 33.8167 -83.3167 59° Northeast 127 146 7,000  Level Atlanta TRACON
06:05PM 33.8333 -83.2833 59° Northeast 126 145 7,000  Level Atlanta TRACON
06:06PM 33.8500 -83.2333 68° East 121 139 7,000  Level Atlanta TRACON
06:07PM 33.8500 -83.2000 90° East 121 139 7,000  Level Atlanta TRACON
06:08PM 33.8667 -83.1667 59° Northeast 123 142 7,000  Level Atlanta TRACON
06:09PM 33.8847 -83.1281 61° Northeast 121 139 7,000  Level Atlanta Center
06:10PM 33.8992 -83.0928 64° Northeast 121 139 7,000  Level Atlanta Center
06:11PM 33.9114 -83.0575 67° East 115 132 7,000  Level Atlanta Center
06:12PM 33.9278 -83.0197 62° Northeast 115 132 7,000  Level Atlanta Center
06:13PM 33.9400 -82.9847 67° East 115 132 7,000  Level Atlanta Center
06:14PM 33.9542 -82.9469 66° East 115 132 7,000  Level Atlanta Center
06:15PM 33.9686 -82.9117 64° Northeast 115 132 7,000  Level Atlanta Center
06:16PM 33.9828 -82.8739 66° East 115 132 7,000  Level Atlanta Center
06:17PM 33.9950 -82.8386 67° East 115 132 7,000  Level Atlanta Center
06:18PM 34.0114 -82.8008 62° Northeast 115 132 7,000  Level Atlanta Center
06:19PM 34.0236 -82.7656 67° East 115 132 7,000  Level Atlanta Center
06:20PM 34.0356 -82.7278 69° East 115 132 7,000  Level Atlanta Center
06:21PM 34.0497 -82.6925 64° Northeast 115 132 7,000  Level Atlanta Center
06:22PM 34.0642 -82.6572 64° Northeast 115 132 7,000  Level Atlanta Center
06:23PM 34.0783 -82.6192 66° East 115 132 7,000  Level Atlanta Center
06:24PM 34.0903 -82.5839 68° East 115 132 7,000  Level Atlanta Center
06:25PM 34.1044 -82.5461 66° East 115 132 7,000  Level Atlanta Center
06:26PM 34.1186 -82.5108 64° Northeast 115 132 7,000  Level Atlanta Center
06:27PM 34.1308 -82.4728 69° East 115 132 7,000  Level Atlanta Center
06:28PM 34.1450 -82.4375 64° Northeast 115 132 7,000  Level Atlanta Center
06:29PM 34.1589 -82.3994 66° East 115 132 7,000  Level Atlanta Center
06:30PM 34.1731 -82.3642 64° Northeast 115 132 7,000  Level Atlanta Center
06:31PM 34.1853 -82.3286 67° East 115 132 7,000 -120 Level Atlanta Center
06:33PM 34.1957 -82.2858 64° Northeast  Level FlightAware Approximate
06:40PM 34.3255 -82.0530 47° Northeast  Level FlightAware Approximate
06:41PM 34.3485 -82.0235 47° Northeast  Level FlightAware Approximate
06:42PM 34.3715 -81.9939 47° Northeast  Level FlightAware Approximate
06:43PM 34.3945 -81.9643 47° Northeast  Level FlightAware Approximate
06:44PM 34.4175 -81.9346 47° Northeast  Level FlightAware Approximate
06:45PM 34.4404 -81.9050 47° Northeast  Level FlightAware Approximate
06:46PM 34.4634 -81.8753 47° Northeast  Level FlightAware Approximate
06:47PM 34.4864 -81.8456 47° Northeast  Level FlightAware Approximate
06:48PM 34.5093 -81.8160 47° Northeast  Level FlightAware Approximate
06:49PM 34.5322 -81.7862 47° Northeast  Level FlightAware Approximate
06:50PM 34.5552 -81.7565 47° Northeast  Level FlightAware Approximate
06:51PM 34.5781 -81.7268 47° Northeast  Level FlightAware Approximate
06:51PM 34.6189 -81.6814 51° Northeast 123 142 4,900  Level Atlanta Center
06:52PM 34.6010 -81.6970 47° Northeast  Level FlightAware Approximate
06:52PM 34.6206 -81.6511 86° East 126 145 4,900  Level Atlanta Center
06:53PM 34.6239 -81.6672 47° Northeast  Level FlightAware Approximate
06:53PM 34.6258 -81.6106 81° East 118 136 4,900  Level Atlanta Center
06:54PM 34.6468 -81.6375 47° Northeast  Level FlightAware Approximate
06:54PM 34.6314 -81.5700 81° East 125 144 4,600  Level Atlanta Center
06:55PM 34.6682 -81.6060 51° Northeast  Level FlightAware Approximate
06:55PM 34.6367 -81.5217 82° East 139 160 4,000  Level Atlanta Center
06:56PM 34.6893 -81.5744 51° Northeast  Level FlightAware Approximate
06:56PM 34.6419 -81.4786 82° East 127 146 4,000  Level Atlanta Center
06:57PM 34.6494 -81.4356 78° East 117 135 3,900 -60 Descending Atlanta Center
06:58PM 34.6547 -81.3950 81° East 118 136 3,900  Level Atlanta Center
06:59PM 34.6603 -81.3569 80° East 115 132 3,900  Level Atlanta Center
07:00PM 34.6636 -81.3139 85° East 117 135 3,900  Level Atlanta Center
07:01PM 34.6711 -81.2758 77° East 117 135 3,900  Level Atlanta Center
07:02PM 34.6744 -81.2378 84° East 114 131 3,900  Level Atlanta Center
07:03PM 34.6775 -81.1972 85° East 117 135 3,900 -300 Level Atlanta Center
07:04PM 34.6850 -81.1539 78° East 127 146 3,400 -540 Descending Atlanta Center
07:05PM 34.6922 -81.1083 79° East 137 158 2,900 -300 Descending Atlanta Center
07:06PM 34.6953 -81.0653 85° East 127 146 2,800 -240 Descending Atlanta Center
07:07PM 34.7028 -81.0244 77° East 122 140 2,500 -240 Descending Atlanta Center
07:08PM 34.7144 -80.9889 68° East 118 136 2,400 -120 Descending Atlanta Center